Time;durP1;ratioP1;P1;durP2;ratioP2;P2;SDS_P1;SDS_P2;PMS_P1;PMS_P2;Temp;Humidity;BMP_temperature;BMP_pressure;BME280_temperature;BME280_humidity;BME280_pressure;Samples;Min_cycle;Max_cycle;Signal;HPM_P1;HPM_P2
2021/11/11 00:00:06;;;;;;;2.27;0.90;;;;;;;9.76;46.63;103662.17;1700982;83;21056;-55
2021/11/11 00:02:35;;;;;;;1.52;0.90;;;;;;;9.79;46.61;103650.94;1708496;83;21065;-54
2021/11/11 00:05:05;;;;;;;1.77;0.70;;;;;;;9.82;46.22;103654.53;1713894;83;21021;-50
2021/11/11 00:07:33;;;;;;;1.10;1.00;;;;;;;9.85;46.16;103655.89;1709838;83;21057;-53
2021/11/11 00:10:01;;;;;;;1.25;0.62;;;;;;;9.89;46.22;103659.48;1710661;83;20990;-54
2021/11/11 00:12:31;;;;;;;1.47;0.80;;;;;;;9.93;45.97;103659.14;1711060;83;21498;-53
2021/11/11 00:14:56;;;;;;;1.35;0.78;;;;;;;9.98;46.16;103661.42;1707150;83;21096;-53
2021/11/11 00:17:22;;;;;;;1.35;0.82;;;;;;;10.03;46.37;103659.84;1711426;83;21009;-52
2021/11/11 00:19:49;;;;;;;2.35;0.90;;;;;;;10.06;46.31;103652.09;1707461;83;21037;-52
2021/11/11 00:22:15;;;;;;;1.50;0.80;;;;;;;10.11;46.33;103660.95;1712670;83;21509;-52
2021/11/11 00:24:42;;;;;;;4.25;0.75;;;;;;;10.14;46.81;103659.75;1710978;83;21506;-55
2021/11/11 00:27:09;;;;;;;1.12;0.78;;;;;;;10.16;46.60;103654.16;1700716;83;20993;-54
2021/11/11 00:29:36;;;;;;;2.45;0.98;;;;;;;10.17;46.47;103651.59;1713589;83;21022;-55
2021/11/11 00:32:05;;;;;;;0.98;0.65;;;;;;;10.18;46.35;103645.53;1711071;83;21010;-53
2021/11/11 00:34:32;;;;;;;1.52;0.80;;;;;;;10.21;46.21;103651.23;1685243;83;20978;-56
2021/11/11 00:36:59;;;;;;;1.52;0.88;;;;;;;10.22;46.16;103656.92;1710625;83;21056;-50
2021/11/11 00:39:26;;;;;;;1.12;0.98;;;;;;;10.21;45.88;103659.05;1710918;83;21030;-53
2021/11/11 00:41:53;;;;;;;1.00;0.90;;;;;;;10.22;45.91;103650.42;1711287;83;21025;-50
2021/11/11 00:44:19;;;;;;;1.42;0.78;;;;;;;10.23;45.67;103653.46;1719780;83;21037;-52
2021/11/11 00:46:48;;;;;;;1.00;0.90;;;;;;;10.23;45.49;103656.06;1713726;83;21069;-52
2021/11/11 00:49:15;;;;;;;1.52;0.98;;;;;;;10.24;45.61;103650.89;1709906;83;21033;-50
2021/11/11 00:51:43;;;;;;;2.98;1.15;;;;;;;10.25;45.59;103642.67;1706519;83;21017;-52
2021/11/11 00:54:10;;;;;;;0.98;0.88;;;;;;;10.26;45.48;103641.84;1707776;83;21021;-50
2021/11/11 00:56:36;;;;;;;1.12;1.00;;;;;;;10.27;45.37;103638.38;1703894;83;21029;-50
2021/11/11 00:59:06;;;;;;;1.80;0.80;;;;;;;10.27;45.23;103627.97;1711008;83;21013;-53
2021/11/11 01:01:32;;;;;;;1.25;0.88;;;;;;;10.28;45.08;103622.80;1707347;83;21510;-53
2021/11/11 01:04:00;;;;;;;1.27;0.95;;;;;;;10.29;45.40;103623.27;1706005;83;20981;-54
2021/11/11 01:06:28;;;;;;;1.62;1.20;;;;;;;10.31;45.28;103623.30;1705359;83;21022;-53
2021/11/11 01:08:56;;;;;;;1.62;1.00;;;;;;;10.32;45.41;103621.17;1701704;83;21066;-52
2021/11/11 01:11:25;;;;;;;2.30;1.10;;;;;;;10.34;45.26;103620.79;1708753;83;20982;-52
2021/11/11 01:13:51;;;;;;;3.12;1.02;;;;;;;10.35;45.20;103618.63;1706755;83;21009;-53
2021/11/11 01:16:19;;;;;;;1.85;0.98;;;;;;;10.38;45.36;103617.41;1705657;83;21025;-52
2021/11/11 01:18:46;;;;;;;2.42;1.15;;;;;;;10.42;45.44;103614.05;1699667;83;21013;-54
2021/11/11 01:21:13;;;;;;;1.37;1.27;;;;;;;10.44;45.19;103614.55;1705016;83;20998;-50
2021/11/11 01:23:40;;;;;;;1.22;0.93;;;;;;;10.46;44.96;103595.05;1708732;83;20990;-52
2021/11/11 01:26:09;;;;;;;1.65;0.90;;;;;;;10.49;45.17;103599.01;1704621;83;21514;-51
2021/11/11 01:28:36;;;;;;;1.87;0.80;;;;;;;10.52;45.12;103597.80;1696357;83;21001;-52
2021/11/11 01:31:06;;;;;;;1.85;1.20;;;;;;;10.51;45.33;103590.81;1743004;81;21058;-51
2021/11/11 01:33:36;;;;;;;1.00;0.90;;;;;;;10.54;45.50;103590.91;1708741;83;21006;-52
2021/11/11 01:36:04;;;;;;;2.92;1.10;;;;;;;10.53;45.41;103599.58;1704587;83;21541;-53
2021/11/11 01:38:33;;;;;;;1.57;1.10;;;;;;;10.53;45.25;103598.27;1739009;81;20994;-53
2021/11/11 01:41:01;;;;;;;1.60;0.98;;;;;;;10.53;45.51;103592.61;1705455;83;21006;-50
2021/11/11 01:43:30;;;;;;;1.52;0.98;;;;;;;10.53;45.75;103580.90;1741428;81;20998;-50
2021/11/11 01:45:58;;;;;;;1.30;0.90;;;;;;;10.54;45.54;103581.79;1700910;83;21049;-51
2021/11/11 01:48:26;;;;;;;3.02;1.30;;;;;;;10.54;45.48;103580.48;1705884;83;21077;-50
2021/11/11 01:50:55;;;;;;;0.88;0.80;;;;;;;10.52;45.46;103569.16;1736419;81;21534;-53
2021/11/11 01:53:24;;;;;;;2.52;1.00;;;;;;;10.53;45.22;103570.94;1701393;83;21038;-50
2021/11/11 01:55:53;;;;;;;1.37;0.90;;;;;;;10.53;45.27;103578.75;1705903;83;21055;-49
2021/11/11 01:58:21;;;;;;;1.45;1.07;;;;;;;10.53;45.31;103573.54;1741115;81;21078;-52
2021/11/11 02:00:52;;;;;;;2.15;0.85;;;;;;;10.54;45.21;103566.17;1743019;81;21042;-50
2021/11/11 02:03:21;;;;;;;1.80;1.30;;;;;;;10.54;45.25;103557.05;1741832;81;21011;-56
2021/11/11 02:05:50;;;;;;;2.05;1.00;;;;;;;10.53;45.35;103563.13;1678862;85;21117;-52
2021/11/11 02:08:19;;;;;;;1.87;0.93;;;;;;;10.54;45.21;103569.66;1677913;85;21056;-51
2021/11/11 02:10:48;;;;;;;3.35;1.22;;;;;;;10.53;45.23;103564.42;1681312;85;21572;-58
2021/11/11 02:13:15;;;;;;;3.27;1.20;;;;;;;10.53;45.16;103550.11;1681049;85;21013;-52
2021/11/11 02:15:42;;;;;;;1.70;0.93;;;;;;;10.54;45.17;103551.84;1681318;84;21034;-51
2021/11/11 02:18:09;;;;;;;1.27;1.02;;;;;;;10.55;45.05;103547.12;1681379;84;21058;-52
2021/11/11 02:20:40;;;;;;;1.42;0.98;;;;;;;10.55;44.93;103544.06;1681328;84;21534;-53
2021/11/11 02:23:11;;;;;;;1.50;1.02;;;;;;;10.57;44.86;103546.72;1607703;88;21070;-52
2021/11/11 02:25:57;;;;;;;1.72;1.30;;;;;;;10.58;44.98;103547.16;1603483;89;21514;-53
2021/11/11 02:28:25;;;;;;;1.72;1.25;;;;;;;10.59;44.96;103547.64;1607698;88;21135;-53
2021/11/11 02:30:53;;;;;;;1.95;1.00;;;;;;;10.60;44.97;103551.57;1607802;88;21119;-52
2021/11/11 02:33:25;;;;;;;1.00;0.70;;;;;;;10.60;44.93;103545.06;1638422;86;21081;-51
2021/11/11 02:35:52;;;;;;;1.57;0.90;;;;;;;10.61;45.03;103543.34;1638807;86;21061;-50
2021/11/11 02:38:19;;;;;;;3.05;1.10;;;;;;;10.62;45.20;103535.56;1641477;86;21521;-56
2021/11/11 02:40:46;;;;;;;2.37;1.05;;;;;;;10.63;45.20;103533.84;1640125;87;21137;-54
2021/11/11 02:43:13;;;;;;;1.65;0.93;;;;;;;10.64;45.14;103532.98;1641249;86;21057;-51
2021/11/11 02:45:45;;;;;;;1.20;1.00;;;;;;;10.66;45.13;103528.68;1641409;86;21054;-55
2021/11/11 02:48:14;;;;;;;1.95;1.07;;;;;;;10.68;45.39;103528.29;1641348;86;21078;-50
2021/11/11 02:50:42;;;;;;;2.15;1.00;;;;;;;10.71;45.43;103526.19;1633841;86;21118;-51
2021/11/11 02:53:11;;;;;;;1.47;1.20;;;;;;;10.73;45.34;103518.87;1632639;86;21043;-52
2021/11/11 02:55:39;;;;;;;2.65;1.35;;;;;;;10.76;45.18;103516.31;1632678;86;21065;-53
2021/11/11 02:58:06;;;;;;;1.32;1.12;;;;;;;10.80;45.29;103523.79;1632669;86;21090;-50
2021/11/11 03:00:55;;;;;;;2.20;1.20;;;;;;;10.83;45.23;103516.91;1632937;86;21058;-55
2021/11/11 03:03:23;;;;;;;1.10;0.95;;;;;;;10.84;45.53;103514.74;1573246;90;21013;-51
2021/11/11 03:05:50;;;;;;;1.72;1.00;;;;;;;10.86;45.53;103519.56;1583689;90;21053;-52
2021/11/11 03:08:20;;;;;;;3.30;1.52;;;;;;;10.87;45.61;103508.31;1583219;89;21100;-53
2021/11/11 03:10:48;;;;;;;2.15;1.15;;;;;;;10.87;45.75;103495.28;1573562;90;21044;-51
2021/11/11 03:13:18;;;;;;;4.62;1.40;;;;;;;10.88;45.69;103493.12;1569854;90;21035;-50
2021/11/11 03:15:47;;;;;;;2.30;1.45;;;;;;;10.88;45.72;103498.78;1575865;90;21555;-52
2021/11/11 03:18:16;;;;;;;2.65;1.30;;;;;;;10.88;45.61;103500.93;1574416;89;21086;-52
2021/11/11 03:20:42;;;;;;;4.40;1.70;;;;;;;10.87;45.80;103493.98;1618685;86;21075;-51
2021/11/11 03:23:09;;;;;;;2.87;1.35;;;;;;;10.88;45.93;103493.12;1635971;86;21649;-52
2021/11/11 03:25:36;;;;;;;2.15;1.32;;;;;;;10.88;45.94;103490.96;1635635;86;21592;-54
2021/11/11 03:28:05;;;;;;;1.70;1.10;;;;;;;10.89;46.24;103490.09;1638267;86;21040;-55
2021/11/11 03:30:32;;;;;;;2.52;1.55;;;;;;;10.89;46.30;103492.29;1633616;86;21024;-52
2021/11/11 03:33:00;;;;;;;2.92;1.27;;;;;;;10.90;46.47;103491.42;1635498;86;21829;-52
2021/11/11 03:35:28;;;;;;;5.00;1.10;;;;;;;10.92;46.33;103491.03;1634623;86;21072;-52
2021/11/11 03:37:58;;;;;;;1.25;1.10;;;;;;;10.95;46.25;103491.11;1634359;87;21024;-54
2021/11/11 03:40:28;;;;;;;1.20;0.98;;;;;;;10.97;46.07;103480.70;1667350;83;21009;-56
2021/11/11 03:42:55;;;;;;;3.85;1.50;;;;;;;11.00;45.68;103469.95;1738343;81;21009;-52
2021/11/11 03:45:24;;;;;;;1.87;1.22;;;;;;;11.02;45.39;103469.55;1735368;81;21033;-50
2021/11/11 03:47:52;;;;;;;1.60;1.00;;;;;;;11.05;45.36;103462.19;1730158;81;21132;-52
2021/11/11 03:50:20;;;;;;;1.85;1.30;;;;;;;11.06;45.41;103457.03;1714992;82;20990;-52
2021/11/11 03:52:49;;;;;;;1.82;1.12;;;;;;;11.06;45.68;103463.55;1748476;81;21498;-51
2021/11/11 03:55:19;;;;;;;2.60;1.10;;;;;;;11.07;45.45;103461.80;1748542;81;21026;-52
2021/11/11 03:57:46;;;;;;;1.25;1.00;;;;;;;11.08;45.20;103454.03;1748504;81;20998;-52
2021/11/11 04:00:15;;;;;;;2.52;1.20;;;;;;;11.08;45.39;103455.75;1748436;81;20987;-52
2021/11/11 04:02:44;;;;;;;1.87;1.23;;;;;;;11.08;45.43;103450.54;1724273;81;21049;-52
2021/11/11 04:05:11;;;;;;;1.45;0.90;;;;;;;11.05;45.51;103443.53;1748655;82;21719;-52
2021/11/11 04:07:41;;;;;;;2.08;1.02;;;;;;;11.08;45.75;103438.39;1744796;82;21023;-55
2021/11/11 04:10:09;;;;;;;3.98;1.00;;;;;;;11.07;45.63;103435.73;1748434;81;21642;-52
2021/11/11 04:12:37;;;;;;;2.05;1.00;;;;;;;11.07;45.56;103444.44;1748208;81;21050;-53
2021/11/11 04:15:05;;;;;;;2.75;1.05;;;;;;;11.07;45.79;103436.63;1748387;81;20975;-51
2021/11/11 04:17:34;;;;;;;2.55;0.93;;;;;;;11.05;45.67;103437.02;1748146;81;21198;-50
2021/11/11 04:20:01;;;;;;;1.25;0.88;;;;;;;11.05;45.64;103432.22;1748665;82;21041;-52
2021/11/11 04:22:28;;;;;;;1.50;1.00;;;;;;;11.04;45.91;103436.59;1723598;82;21038;-51
2021/11/11 04:24:57;;;;;;;4.85;1.35;;;;;;;11.07;46.02;103436.63;1748472;81;21112;-50
2021/11/11 04:27:32;;;;;;;3.10;1.05;;;;;;;11.10;46.09;103434.50;1748179;81;21102;-52
2021/11/11 04:30:09;;;;;;;2.77;1.05;;;;;;;11.13;46.16;103435.84;1745142;81;21547;-50
2021/11/11 04:32:24;;;;;;;2.95;0.82;;;;;;;11.15;46.32;103428.94;1744626;81;21111;-53
2021/11/11 04:34:56;;;;;;;1.98;1.00;;;;;;;11.18;46.20;103426.41;1748525;81;20982;-53
2021/11/11 04:40:17;;;;;;;;;;;;;;;11.22;45.66;103431.70;1677622;85;21046;-52
2021/11/11 05:00:26;;;;;;;1.52;0.90;;;;;;;11.22;45.52;103431.70;1665012;85;21680;-51
2021/11/11 05:05:19;;;;;;;1.47;0.78;;;;;;;11.21;45.79;103435.14;1666703;85;21586;-52
2021/11/11 05:07:48;;;;;;;2.17;0.53;;;;;;;11.22;46.16;103435.61;1663751;86;21090;-54
2021/11/11 05:10:16;;;;;;;0.90;0.60;;;;;;;11.22;45.97;103440.83;1668724;85;21035;-50
2021/11/11 05:12:43;;;;;;;0.62;0.50;;;;;;;11.23;46.16;103434.74;1663262;85;21047;-53
2021/11/11 05:15:10;;;;;;;4.37;1.20;;;;;;;11.25;46.43;103442.62;1669048;85;21083;-50
2021/11/11 05:17:40;;;;;;;1.57;0.70;;;;;;;11.25;46.52;103442.16;1692314;84;21045;-53
2021/11/11 05:20:08;;;;;;;1.42;0.90;;;;;;;11.28;46.42;103441.35;1690202;84;21529;-51
2021/11/11 05:22:35;;;;;;;0.98;0.68;;;;;;;11.30;46.03;103448.35;1696964;84;21046;-52
2021/11/11 05:25:05;;;;;;;1.35;0.88;;;;;;;11.35;45.65;103461.48;1699371;84;21101;-53
2021/11/11 05:27:32;;;;;;;0.82;0.70;;;;;;;11.38;45.67;103455.00;1697779;84;21022;-55
2021/11/11 05:29:58;;;;;;;2.77;1.45;;;;;;;11.43;45.45;103458.16;1696049;84;21054;-52
2021/11/11 05:32:26;;;;;;;1.22;0.80;;;;;;;11.48;45.36;103453.45;1696499;84;21487;-54
2021/11/11 05:34:53;;;;;;;1.02;0.50;;;;;;;11.54;45.33;103457.47;1696331;84;21062;-54
2021/11/11 05:37:21;;;;;;;1.50;0.70;;;;;;;11.64;45.13;103459.38;1726807;81;21003;-52
2021/11/11 05:39:47;;;;;;;1.42;0.68;;;;;;;11.73;44.84;103463.45;1736120;81;21022;-50
2021/11/11 05:42:15;;;;;;;1.70;0.70;;;;;;;11.83;44.68;103462.32;1735436;81;21038;-52
2021/11/11 05:44:41;;;;;;;1.45;0.57;;;;;;;11.91;44.35;103455.48;1730610;82;21074;-52
2021/11/11 05:47:08;;;;;;;5.78;0.95;;;;;;;11.96;44.39;103450.34;1721346;81;21034;-52
2021/11/11 05:49:35;;;;;;;0.90;0.50;;;;;;;12.02;44.26;103456.96;1731306;81;21114;-53
2021/11/11 05:52:03;;;;;;;0.70;0.40;;;;;;;12.08;44.13;103458.36;1733768;81;21511;-52
2021/11/11 05:54:32;;;;;;;1.22;0.53;;;;;;;12.13;44.18;103457.59;1733960;82;21034;-50
2021/11/11 05:56:59;;;;;;;1.40;0.60;;;;;;;12.19;43.93;103464.63;1734410;81;21011;-52
2021/11/11 05:59:26;;;;;;;2.52;0.60;;;;;;;12.22;43.77;103461.63;1700989;84;21058;-51
2021/11/11 06:01:53;;;;;;;1.10;0.57;;;;;;;12.26;43.86;103458.65;1699030;84;21026;-51
2021/11/11 06:04:20;;;;;;;1.70;0.60;;;;;;;12.32;43.80;103462.65;1697757;83;20986;-54
2021/11/11 06:06:48;;;;;;;1.25;0.65;;;;;;;12.41;43.84;103466.67;1694702;84;20955;-52
2021/11/11 06:09:15;;;;;;;1.60;0.62;;;;;;;12.51;43.73;103465.94;1694623;84;20995;-52
2021/11/11 06:11:42;;;;;;;1.57;0.72;;;;;;;12.64;43.41;103456.11;1700293;84;21025;-52
2021/11/11 06:14:10;;;;;;;1.85;0.80;;;;;;;12.80;43.88;103467.19;1700682;84;21034;-50
2021/11/11 06:16:37;;;;;;;2.33;0.98;;;;;;;12.96;43.85;103465.19;1696903;84;20998;-56
2021/11/11 06:19:09;;;;;;;3.25;1.35;;;;;;;13.11;44.14;103469.75;1695237;84;20991;-52
2021/11/11 06:21:38;;;;;;;3.47;0.95;;;;;;;13.19;44.35;103469.85;1697687;84;21079;-54
2021/11/11 06:24:05;;;;;;;2.67;1.20;;;;;;;13.25;44.57;103461.61;1697913;84;21023;-52
2021/11/11 06:26:32;;;;;;;2.65;1.22;;;;;;;13.27;44.74;103459.03;1697913;84;21041;-52
2021/11/11 06:29:01;;;;;;;1.60;1.05;;;;;;;13.27;44.93;103459.89;1695438;83;21053;-51
2021/11/11 06:31:28;;;;;;;3.10;0.98;;;;;;;13.26;45.21;103457.27;1700833;84;21046;-53
2021/11/11 06:33:55;;;;;;;1.22;1.00;;;;;;;13.22;45.05;103456.79;1700891;84;21059;-52
2021/11/11 06:36:22;;;;;;;3.45;1.20;;;;;;;13.22;45.38;103456.79;1704288;83;21013;-50
2021/11/11 06:38:49;;;;;;;1.77;1.05;;;;;;;13.20;45.44;103462.44;1697610;84;21049;-54
2021/11/11 06:41:15;;;;;;;2.65;1.10;;;;;;;13.18;45.25;103461.13;1698046;84;21030;-52
2021/11/11 06:43:43;;;;;;;1.67;1.00;;;;;;;13.15;45.34;103460.22;1691725;83;21057;-52
2021/11/11 06:46:09;;;;;;;3.67;1.22;;;;;;;13.11;45.43;103459.29;1700738;84;21501;-52
2021/11/11 06:48:38;;;;;;;1.50;0.98;;;;;;;13.08;45.48;103456.20;1674748;84;21071;-53
2021/11/11 06:51:04;;;;;;;4.00;1.45;;;;;;;13.05;45.70;103452.27;1732277;81;21015;-53
2021/11/11 06:53:31;;;;;;;1.85;1.15;;;;;;;13.04;45.88;103454.42;1731955;81;21054;-52
2021/11/11 06:55:58;;;;;;;4.15;1.07;;;;;;;13.06;46.11;103451.84;1727280;81;21006;-57
2021/11/11 06:58:24;;;;;;;2.98;1.07;;;;;;;13.08;46.28;103445.75;1732218;82;21518;-53
2021/11/11 07:00:57;;;;;;;4.50;3.27;;;;;;;13.13;45.96;103444.95;1722051;81;20991;-54
2021/11/11 07:03:24;;;;;;;16.00;10.35;;;;;;;13.16;46.09;103439.73;1704749;84;21046;-50
2021/11/11 07:05:51;;;;;;;12.05;10.88;;;;;;;13.20;46.31;103446.75;1732060;81;21007;-55
2021/11/11 07:08:18;;;;;;;28.15;23.35;;;;;;;13.22;46.25;103443.30;1733426;81;21546;-50
2021/11/11 07:10:47;;;;;;;13.35;10.88;;;;;;;13.25;46.17;103439.84;1735019;81;21030;-51
2021/11/11 07:13:13;;;;;;;8.50;6.05;;;;;;;13.26;46.09;103444.19;1734910;81;20939;-52
2021/11/11 07:15:41;;;;;;;4.47;2.80;;;;;;;13.28;46.40;103440.73;1734605;81;21015;-52
2021/11/11 07:18:11;;;;;;;7.45;2.00;;;;;;;13.30;46.09;103440.33;1747515;80;21071;-53
2021/11/11 07:20:43;;;;;;;2.12;1.37;;;;;;;13.32;46.01;103442.94;1754494;80;21928;-53
2021/11/11 07:23:08;;;;;;;3.70;1.42;;;;;;;13.33;45.92;103443.41;1742095;81;21534;-49
2021/11/11 07:25:34;;;;;;;1.55;1.25;;;;;;;13.33;45.92;103440.79;1733626;81;21019;-53
2021/11/11 07:28:00;;;;;;;5.58;2.42;;;;;;;13.33;46.15;103442.09;1741854;80;21042;-53
2021/11/11 07:30:27;;;;;;;6.47;1.75;;;;;;;13.33;46.16;103447.33;1741880;80;21053;-53
2021/11/11 07:32:54;;;;;;;4.53;1.27;;;;;;;13.32;45.84;103437.71;1745002;80;21015;-52
2021/11/11 07:35:20;;;;;;;1.62;1.12;;;;;;;13.32;46.01;103431.17;1738367;80;20975;-52
2021/11/11 07:37:50;;;;;;;2.72;1.22;;;;;;;13.34;46.41;103439.91;1748504;80;21002;-55
2021/11/11 07:40:19;;;;;;;2.22;1.42;;;;;;;13.35;46.21;103440.37;1750437;80;21510;-54
2021/11/11 07:42:47;;;;;;;4.25;1.35;;;;;;;13.37;45.95;103436.03;1733660;80;20974;-51
2021/11/11 07:45:18;;;;;;;2.45;1.30;;;;;;;13.34;45.98;103435.56;1695766;84;21026;-56
2021/11/11 07:47:45;;;;;;;2.15;1.40;;;;;;;13.34;46.02;103435.98;1726512;80;20979;-54
2021/11/11 07:50:11;;;;;;;4.67;1.30;;;;;;;13.36;46.19;103432.95;1744298;80;21057;-50
2021/11/11 07:52:39;;;;;;;1.72;1.25;;;;;;;13.39;46.50;103429.08;1746521;80;21055;-53
2021/11/11 07:55:08;;;;;;;2.52;1.22;;;;;;;13.40;46.22;103433.00;1729877;80;21058;-53
2021/11/11 07:57:35;;;;;;;3.60;1.80;;;;;;;13.40;46.18;103429.50;1737160;80;20987;-53
2021/11/11 08:00:07;;;;;;;3.72;1.32;;;;;;;13.40;45.89;103433.42;1758534;80;21570;-53
2021/11/11 08:02:36;;;;;;;1.50;1.20;;;;;;;13.41;46.21;103429.97;1698755;84;21107;-53
2021/11/11 08:05:04;;;;;;;2.60;1.52;;;;;;;13.42;46.00;103433.00;1744151;81;21499;-52
2021/11/11 08:07:31;;;;;;;2.15;1.20;;;;;;;13.41;45.63;103426.92;1736455;81;21022;-51
2021/11/11 08:09:58;;;;;;;2.52;1.20;;;;;;;13.43;45.65;103426.93;1740333;81;20994;-52
2021/11/11 08:12:24;;;;;;;1.82;1.12;;;;;;;13.43;45.94;103433.47;1738660;81;20967;-51
2021/11/11 08:14:51;;;;;;;3.12;1.47;;;;;;;13.45;46.01;103429.13;1742242;81;21018;-52
2021/11/11 08:17:20;;;;;;;7.20;1.77;;;;;;;13.46;45.60;103429.55;1743913;81;21407;-53
2021/11/11 08:19:46;;;;;;;3.60;1.60;;;;;;;13.47;45.94;103428.28;1733693;81;21005;-52
2021/11/11 08:22:13;;;;;;;2.65;1.50;;;;;;;13.50;45.92;103425.67;1743611;82;21070;-53
2021/11/11 08:24:43;;;;;;;2.08;1.32;;;;;;;13.53;45.81;103423.53;1736532;82;21054;-54
2021/11/11 08:27:12;;;;;;;2.77;1.60;;;;;;;13.55;45.55;103422.68;1738299;82;21038;-56
2021/11/11 08:29:40;;;;;;;5.25;2.12;;;;;;;13.58;45.65;103427.07;1737887;82;21360;-53
2021/11/11 08:32:07;;;;;;;3.33;1.50;;;;;;;13.62;45.58;103421.00;1743134;82;21058;-54
2021/11/11 08:34:33;;;;;;;2.67;1.52;;;;;;;13.65;45.46;103417.08;1744107;81;21487;-53
2021/11/11 08:36:59;;;;;;;4.30;2.10;;;;;;;13.68;45.26;103414.05;1742039;82;21011;-54
2021/11/11 08:39:26;;;;;;;1.70;1.50;;;;;;;13.72;45.20;103412.34;1745363;81;21001;-55
2021/11/11 08:41:52;;;;;;;4.62;1.87;;;;;;;13.78;45.00;103412.39;1738994;81;21053;-56
2021/11/11 08:44:20;;;;;;;2.35;1.57;;;;;;;13.82;44.52;103407.20;1737593;81;21058;-54
2021/11/11 08:46:49;;;;;;;2.55;1.87;;;;;;;13.84;44.51;103401.97;1744123;82;20981;-54
2021/11/11 08:49:18;;;;;;;4.50;1.87;;;;;;;13.84;44.71;103401.97;1727707;82;21103;-56
2021/11/11 08:51:46;;;;;;;4.62;2.20;;;;;;;13.85;44.99;103401.08;1744657;81;21079;-55
2021/11/11 08:54:14;;;;;;;2.65;1.95;;;;;;;13.87;44.69;103399.34;1742497;81;21027;-54
2021/11/11 08:56:47;;;;;;;3.70;1.92;;;;;;;13.87;44.42;103390.19;1740451;82;22210;-52
2021/11/11 08:59:10;;;;;;;4.53;2.35;;;;;;;13.87;44.53;103387.57;1738565;82;21090;-54
2021/11/11 09:01:36;;;;;;;4.72;2.17;;;;;;;13.85;45.15;103385.38;1733993;81;21042;-55
2021/11/11 09:04:03;;;;;;;4.08;2.42;;;;;;;13.84;45.08;103381.02;1733517;81;21459;-54
2021/11/11 09:06:30;;;;;;;3.25;2.15;;;;;;;13.83;44.88;103377.95;1736635;81;21054;-55
2021/11/11 09:08:57;;;;;;;6.33;2.77;;;;;;;13.81;44.85;103374.45;1729392;81;21578;-54
2021/11/11 09:11:24;;;;;;;5.28;2.90;;;;;;;13.79;44.77;103377.48;1739701;81;21502;-51
2021/11/11 09:13:52;;;;;;;4.20;2.70;;;;;;;13.75;44.98;103368.75;1735435;82;21058;-56
2021/11/11 09:16:18;;;;;;;5.55;2.58;;;;;;;13.72;45.13;103374.41;1743676;81;21029;-55
2021/11/11 09:18:45;;;;;;;3.30;2.40;;;;;;;13.74;45.29;103375.30;1727437;81;21050;-55
2021/11/11 09:21:13;;;;;;;5.55;2.75;;;;;;;13.75;44.83;103375.30;1751360;80;21054;-54
2021/11/11 09:23:40;;;;;;;3.92;2.98;;;;;;;13.77;44.67;103371.37;1712377;81;21113;-55
2021/11/11 09:26:08;;;;;;;5.05;2.92;;;;;;;13.81;44.74;103363.98;1737326;81;21057;-55
2021/11/11 09:28:37;;;;;;;4.70;3.02;;;;;;;13.83;44.69;103362.25;1742638;81;21027;-54
2021/11/11 09:31:05;;;;;;;5.45;2.95;;;;;;;13.85;44.94;103359.20;1727097;82;21074;-52
2021/11/11 09:33:32;;;;;;;5.03;2.75;;;;;;;13.87;44.78;103360.09;1742706;82;20979;-53
2021/11/11 09:35:59;;;;;;;9.30;3.25;;;;;;;13.88;44.78;103351.38;1737906;81;21035;-51
2021/11/11 09:38:26;;;;;;;6.35;2.90;;;;;;;13.91;44.42;103351.38;1735152;81;21059;-58
2021/11/11 09:40:53;;;;;;;6.60;3.22;;;;;;;13.90;44.81;103352.27;1733950;82;20983;-54
2021/11/11 09:43:20;;;;;;;5.12;2.98;;;;;;;13.89;44.53;103340.03;1737229;81;21077;-54
2021/11/11 09:45:47;;;;;;;10.03;3.17;;;;;;;13.92;44.34;103337.45;1739432;82;20971;-56
2021/11/11 09:48:16;;;;;;;5.10;2.80;;;;;;;13.94;44.36;103339.64;1736897;81;21054;-53
2021/11/11 09:50:44;;;;;;;6.30;3.33;;;;;;;13.98;44.35;103334.86;1737758;81;21042;-55
2021/11/11 09:53:15;;;;;;;6.87;2.55;;;;;;;14.01;44.40;103333.58;1731998;81;21070;-55
2021/11/11 10:01:16;;;;;;;7.12;3.45;;;;;;;14.09;44.03;103333.18;1736048;81;20959;-54
2021/11/11 10:03:44;;;;;;;4.78;3.00;;;;;;;14.09;43.77;103330.56;1741649;81;21018;-53
2021/11/11 10:06:16;;;;;;;4.65;3.17;;;;;;;14.09;44.00;103326.64;1738763;81;21035;-52
2021/11/11 10:08:46;;;;;;;4.83;2.95;;;;;;;14.10;43.94;103321.82;1731077;81;21081;-53
2021/11/11 10:11:34;;;;;;;3.22;2.75;;;;;;;14.11;43.80;103318.78;1652995;86;21067;-51
2021/11/11 10:14:10;;;;;;;4.00;2.50;;;;;;;14.11;43.88;103323.59;1620120;88;21015;-51
2021/11/11 10:16:45;;;;;;;4.17;3.00;;;;;;;14.10;43.87;103317.89;1612700;88;22931;-53
2021/11/11 10:19:12;;;;;;;7.62;3.10;;;;;;;14.12;44.03;103320.09;1581105;90;21080;-51
2021/11/11 10:24:50;;;;;;;3.30;2.80;;;;;;;14.19;43.70;103311.40;1536979;93;21599;-54
2021/11/11 10:27:25;;;;;;;7.58;3.08;;;;;;;14.20;43.32;103311.82;1536021;92;21141;-54
2021/11/11 10:30:03;;;;;;;4.62;2.75;;;;;;;14.19;43.30;103312.70;1533539;93;21125;-51
2021/11/11 10:32:46;;;;;;;4.00;2.47;;;;;;;14.18;43.31;103304.39;1528100;92;21149;-53
2021/11/11 10:35:31;;;;;;;3.52;2.80;;;;;;;14.18;43.43;103304.39;1500426;96;21135;-55
2021/11/11 10:38:08;;;;;;;5.90;2.87;;;;;;;14.19;43.61;103306.16;1488105;95;21046;-52
2021/11/11 10:40:41;;;;;;;5.97;2.62;;;;;;;14.23;43.44;103305.30;1491354;95;21144;-53
2021/11/11 10:43:18;;;;;;;4.47;2.47;;;;;;;14.26;43.43;103296.59;1500891;94;21131;-53
2021/11/11 10:45:47;;;;;;;3.58;2.58;;;;;;;14.29;43.08;103298.80;1431841;99;21624;-52
2021/11/11 10:48:17;;;;;;;3.72;2.20;;;;;;;14.33;43.49;103294.02;1436170;98;21173;-52
2021/11/11 10:50:50;;;;;;;3.37;2.02;;;;;;;14.37;43.02;103295.77;1432178;99;21144;-51
2021/11/11 10:53:24;;;;;;;6.47;2.95;;;;;;;14.38;42.64;103287.06;1439451;98;21192;-53
2021/11/11 10:55:53;;;;;;;7.83;2.40;;;;;;;14.40;42.52;103290.56;1434420;98;21108;-54
2021/11/11 10:58:24;;;;;;;5.17;2.45;;;;;;;14.43;42.32;103291.86;1434544;99;21165;-53
2021/11/11 11:01:04;;;;;;;3.75;2.25;;;;;;;14.46;42.33;103273.97;1410128;101;21109;-54
2021/11/11 11:03:44;;;;;;;3.98;2.10;;;;;;;14.47;42.18;103283.13;1415617;101;21182;-54
2021/11/11 11:06:14;;;;;;;4.03;1.82;;;;;;;14.50;41.70;103273.10;1407019;101;21089;-51
2021/11/11 11:08:50;;;;;;;2.85;1.62;;;;;;;14.51;41.49;103273.09;1395842;101;21123;-52
2021/11/11 11:11:21;;;;;;;2.62;1.40;;;;;;;14.51;40.83;103262.62;1421979;98;21118;-54
2021/11/11 11:13:54;;;;;;;3.08;1.32;;;;;;;14.52;40.45;103263.50;1437337;99;21110;-55
2021/11/11 11:16:24;;;;;;;2.45;1.27;;;;;;;14.51;40.63;103252.14;1437401;99;21625;-51
2021/11/11 11:19:09;;;;;;;2.42;1.60;;;;;;;14.52;40.52;103246.05;1424808;100;21063;-54
2021/11/11 11:21:48;;;;;;;5.75;1.60;;;;;;;14.54;40.63;103241.67;1466555;96;21644;-57
2021/11/11 11:24:20;;;;;;;2.70;1.25;;;;;;;14.55;40.10;103243.41;1481209;95;21090;-56
2021/11/11 11:26:50;;;;;;;3.42;1.30;;;;;;;14.54;39.55;103239.05;1499610;93;21189;-56
2021/11/11 11:29:33;;;;;;;2.58;1.27;;;;;;;14.55;39.82;103240.78;1534393;92;21091;-56
2021/11/11 11:32:07;;;;;;;1.75;1.40;;;;;;;14.54;39.29;103231.20;1522966;94;21133;-54
2021/11/11 11:34:38;;;;;;;1.50;1.05;;;;;;;14.56;39.13;103228.14;1520333;94;21519;-55
2021/11/11 11:37:12;;;;;;;1.62;1.10;;;;;;;14.54;38.72;103228.58;1480832;94;21130;-55
2021/11/11 11:39:42;;;;;;;1.27;1.10;;;;;;;14.54;38.77;103225.95;1429582;99;21666;-56
2021/11/11 11:42:17;;;;;;;1.72;1.10;;;;;;;14.53;38.38;103228.12;1436477;97;21161;-54
2021/11/11 11:45:02;;;;;;;1.50;1.00;;;;;;;14.53;38.73;103221.57;1498387;94;21065;-53
2021/11/11 11:47:35;;;;;;;2.60;1.30;;;;;;;14.52;38.94;103222.47;1498428;94;21101;-52
2021/11/11 11:50:15;;;;;;;2.80;1.27;;;;;;;14.52;38.83;103217.22;1507148;94;21170;-54
2021/11/11 11:52:47;;;;;;;1.72;1.10;;;;;;;14.52;38.74;103217.22;1510303;94;21114;-54
2021/11/11 12:41:15;;;;;;;1.87;0.90;;;;;;;14.41;38.32;103177.03;1302491;110;21161;-53
2021/11/11 12:43:44;;;;;;;2.20;0.90;;;;;;;14.39;38.34;103170.92;1285885;110;21259;-54
2021/11/11 12:46:40;;;;;;;3.15;1.12;;;;;;;14.39;38.61;103169.61;1268295;111;21523;-54
2021/11/11 12:49:34;;;;;;;1.80;0.93;;;;;;;14.39;38.68;103165.68;1268745;112;21213;-56